Latest Weather Observations for St George

IDQ60801

Issued at 1:32 pm EST Wednesday 27 July 2016 (issued every 30 minutes, with the page automatically refreshed every 10 minutes)

About weather observations | Map of weather stations | Latest weather observations for QLD | Other Formats
Station Details ID: 043109 Name: ST GEORGE AIRPORT Lat: -28.05 Lon: 148.59 Height: 198.5 m
Data from the previous 72 hours. | See also: Recent months at St George
Date/Time
EST
Temp
°C
App
Temp
°C
Dew
Point
°C
Rel
Hum
%
Delta-T
°C
Wind Press
QNH
hPa
Press
MSL
hPa
Rain since
9am
mm
Dir  Spd
km/h
Gust
km/h
Spd
kts
Gust
kts
27/01:30pm 18.5 13.0 1.9 33 7.6 W 20 30 11 16 1019.9 - 0.0
27/01:00pm 18.6 13.4 3.3 36 7.2 W 20 33 11 18 1020.3 - 0.0
27/12:30pm 18.0 12.9 3.1 37 7.0 SW 19 28 10 15 1020.7 - 0.0
27/12:00pm 17.8 11.6 2.2 35 7.1 WSW 24 32 13 17 1021.0 1021.1 0.0
27/11:30am 17.7 11.9 4.3 41 6.4 SW 24 33 13 18 1021.3 - 0.0
27/11:00am 17.1 11.9 3.8 41 6.3 WSW 20 28 11 15 1021.7 - 0.0
27/10:30am 16.7 12.0 5.3 47 5.5 WSW 19 24 10 13 1022.1 - 0.0
27/10:00am 15.3 11.3 4.9 50 4.9 W 15 20 8 11 1022.5 - 0.0
27/09:30am 13.9 9.7 3.9 51 4.6 W 15 20 8 11 1022.3 - 0.0
27/09:00am 12.5 9.2 4.7 59 3.6 WNW 11 17 6 9 1022.4 1022.5 0.0
27/08:30am 10.1 7.2 4.7 69 2.4 NW 9 13 5 7 1022.2 - 0.0
27/08:00am 10.0 7.1 4.6 69 2.4 WNW 9 13 5 7 1022.1 - 0.0
27/07:30am 7.5 5.3 5.5 87 0.9 NNW 6 9 3 5 1021.7 - 0.0
27/07:00am 6.2 3.5 3.9 85 1.0 NNW 7 9 4 5 1021.4 - 0.0
27/06:30am 6.3 3.3 4.0 85 1.0 N 9 9 5 5 1021.1 - 0.0
27/06:00am 6.4 5.1 3.9 84 1.1 CALM 0 0 0 0 1020.8 1020.9 0.0
27/05:30am 7.0 4.6 4.1 82 1.3 NW 6 7 3 4 1020.6 - 0.0
27/05:00am 7.8 5.5 4.6 80 1.4 NW 6 7 3 4 1020.3 - 0.0
27/04:30am 8.3 5.9 5.1 80 1.4 N 7 7 4 4 1020.1 - 0.0
27/04:00am 7.8 5.6 5.1 83 1.2 WNW 6 7 3 4 1019.9 - 0.0
27/03:30am 7.9 5.7 5.2 83 1.2 N 6 7 3 4 1019.7 - 0.0
27/03:00am 7.7 6.5 4.8 82 1.3 CALM 0 4 0 2 1019.7 1019.8 0.0
27/02:30am 8.4 7.4 5.5 82 1.3 CALM 0 0 0 0 1019.3 - 0.0
27/02:00am 8.6 7.6 5.7 82 1.3 CALM 0 0 0 0 1019.7 - 0.0
27/01:30am 8.3 6.1 5.4 82 1.3 SW 6 7 3 4 1019.7 - 0.0
27/01:00am 9.5 8.0 5.1 74 2.0 N 2 6 1 3 1019.4 - 0.0
27/12:30am 8.9 7.1 5.6 80 1.5 NNW 4 7 2 4 1020.1 - 0.0
27/12:00am 9.1 8.1 5.8 80 1.5 CALM 0 0 0 0 1019.7 1019.8 0.0
 
Date/Time
EST
Temp
°C
App
Temp
°C
Dew
Point
°C
Rel
Hum
%
Delta-T
°C
Wind Press
QNH
hPa
Press
MSL
hPa
Rain since
9am
mm
Dir  Spd
km/h
Gust
km/h
Spd
kts
Gust
kts
26/11:30pm 9.3 7.7 6.2 81 1.4 WNW 4 6 2 3 1019.8 - 0.0
26/11:00pm 9.4 8.1 5.9 79 1.6 NW 2 6 1 3 1019.9 - 0.0
26/10:30pm 9.7 8.8 6.1 78 1.7 CALM 0 0 0 0 1020.0 - 0.0
26/10:00pm 9.9 9.1 6.4 79 1.6 CALM 0 0 0 0 1020.1 - 0.0
26/09:30pm 10.0 9.0 5.6 74 2.0 CALM 0 0 0 0 1020.1 - 0.0
26/09:00pm 10.1 9.3 6.4 78 1.7 CALM 0 0 0 0 1019.5 1019.6 0.0
26/08:30pm 10.2 9.3 6.0 75 2.0 CALM 0 0 0 0 1019.8 - 0.0
26/08:00pm 11.1 10.2 6.0 71 2.4 CALM 0 0 0 0 1019.6 - 0.0
26/07:30pm 11.6 10.8 6.7 72 2.4 CALM 0 0 0 0 1019.2 - 0.0
26/07:00pm 11.5 10.5 5.6 67 2.8 CALM 0 0 0 0 1019.2 - 0.0
26/06:30pm 11.6 10.6 5.5 66 2.9 CALM 0 0 0 0 1018.7 - 0.0
26/06:00pm 12.4 11.3 5.1 61 3.4 CALM 0 0 0 0 1018.6 1018.7 0.0
26/05:30pm 13.5 11.5 4.4 54 4.2 W 4 7 2 4 1018.4 - 0.0
26/05:00pm 14.4 11.6 3.2 47 5.1 WNW 7 9 4 5 1018.5 - 0.0
26/04:30pm 14.7 12.0 3.8 48 5.0 W 7 9 4 5 1018.1 - 0.0
26/04:00pm 15.2 12.5 2.7 43 5.7 W 6 7 3 4 1018.3 - 0.0
26/03:30pm 15.3 12.8 3.5 45 5.4 NW 6 7 3 4 1018.2 - 0.0
26/03:00pm 15.5 12.5 2.3 41 5.9 W 7 11 4 6 1018.0 1018.1 0.0
26/02:30pm 15.7 13.0 2.5 41 6.0 W 6 9 3 5 1018.5 - 0.0
26/02:00pm 15.9 12.8 1.6 38 6.4 WNW 7 13 4 7 1018.8 - 0.0
26/01:30pm 15.9 13.0 1.2 37 6.5 SE 6 7 3 4 1019.2 - 0.0
26/01:00pm 15.5 12.0 1.3 38 6.3 SSW 9 13 5 7 1019.7 - 0.0
26/12:30pm 16.1 13.3 1.8 38 6.4 E 6 15 3 8 1020.3 - 0.0
26/12:00pm 15.4 12.4 2.2 41 5.9 NNE 7 13 4 7 1020.8 1020.9 0.0
26/11:30am 15.2 12.1 3.4 45 5.4 E 9 13 5 7 1021.1 - 0.0
26/11:00am 14.4 11.1 2.3 44 5.4 ESE 9 17 5 9 1021.4 - 0.0
26/10:30am 13.2 10.0 3.3 51 4.5 S 9 13 5 7 1021.9 - 0.0
26/10:00am 12.7 10.0 2.6 50 4.5 S 6 7 3 4 1022.3 - 0.0
26/09:30am 11.3 8.9 4.5 63 3.1 SSW 6 7 3 4 1022.4 - 0.0
26/09:00am 10.5 9.4 5.1 69 2.5 CALM 0 0 0 0 1022.2 1022.3 0.0
26/08:30am 9.5 7.6 4.9 73 2.1 N 4 7 2 4 1022.3 - 0.0
26/08:00am 7.3 6.2 5.1 86 1.0 CALM 0 0 0 0 1022.3 - 0.0
26/07:30am 3.3 1.6 2.1 92 0.5 CALM 0 0 0 0 1021.9 - 0.0
26/07:00am 2.9 1.1 1.4 90 0.6 CALM 0 0 0 0 1021.8 - 0.0
26/06:30am 2.8 1.0 1.3 90 0.6 CALM 0 0 0 0 1021.2 - 0.0
26/06:00am 3.2 1.5 1.7 90 0.6 CALM 0 0 0 0 1021.0 1021.1 0.0
26/05:30am 3.2 1.5 1.6 89 0.6 CALM 0 0 0 0 1020.8 - 0.0
26/05:00am 3.7 2.0 2.1 89 0.6 CALM 0 0 0 0 1020.5 - 0.0
26/04:30am 4.5 3.0 2.8 89 0.7 CALM 0 0 0 0 1020.4 - 0.0
26/04:00am 4.9 3.4 2.9 87 0.8 CALM 0 0 0 0 1020.3 - 0.0
26/03:30am 5.5 3.8 3.8 89 0.7 N 2 7 1 4 1020.5 - 0.0
26/03:00am 5.8 4.4 3.8 87 0.9 CALM 0 6 0 3 1020.6 1020.7 0.0
26/02:30am 6.2 4.9 3.9 85 1.0 CALM 0 0 0 0 1020.3 - 0.0
26/02:00am 6.7 5.5 4.4 85 1.0 CALM 0 0 0 0 1020.3 - 0.0
26/01:30am 6.7 5.4 4.2 84 1.1 CALM 0 0 0 0 1020.3 - 0.0
26/01:00am 6.6 5.3 4.1 84 1.1 CALM 0 0 0 0 1020.2 - 0.0
26/12:30am 6.4 5.0 3.7 83 1.2 CALM 0 0 0 0 1020.5 - 0.0
26/12:00am 6.5 5.1 3.7 82 1.2 CALM 0 0 0 0 1020.3 1020.4 0.0
 
Date/Time
EST
Temp
°C
App
Temp
°C
Dew
Point
°C
Rel
Hum
%
Delta-T
°C
Wind Press
QNH
hPa
Press
MSL
hPa
Rain since
9am
mm
Dir  Spd
km/h
Gust
km/h
Spd
kts
Gust
kts
25/11:30pm 6.8 5.5 3.9 82 1.3 CALM 0 0 0 0 1020.4 - 0.0
25/11:00pm 7.0 5.6 3.8 80 1.4 CALM 0 0 0 0 1020.7 - 0.0
25/10:30pm 6.9 5.5 3.5 79 1.5 CALM 0 0 0 0 1020.6 - 0.0
25/10:00pm 7.4 6.0 3.5 76 1.7 CALM 0 0 0 0 1020.6 - 0.0
25/09:30pm 7.7 6.3 3.7 76 1.7 CALM 0 0 0 0 1020.5 - 0.0
25/09:00pm 7.9 6.5 3.6 74 1.9 CALM 0 0 0 0 1020.7 1020.8 0.0
25/08:30pm 9.2 7.8 3.6 68 2.5 CALM 0 0 0 0 1020.5 - 0.0
25/08:00pm 9.5 8.1 3.3 65 2.7 CALM 0 0 0 0 1020.4 - 0.0
25/07:30pm 10.6 8.5 3.9 63 3.0 SSW 4 6 2 3 1020.2 - 0.0
25/07:00pm 10.6 8.0 3.4 61 3.2 SSW 6 7 3 4 1020.1 - 0.0
25/06:30pm 11.1 8.5 3.4 59 3.4 S 6 7 3 4 1019.8 - 0.0
25/06:00pm 12.6 9.3 2.7 51 4.4 S 9 11 5 6 1019.4 1019.5 0.0
25/05:30pm 13.6 10.5 3.7 51 4.5 S 9 11 5 6 1019.2 - 0.0
25/05:00pm 14.9 10.8 2.1 42 5.7 SSW 13 17 7 9 1019.0 - 0.0
25/04:30pm 16.4 12.2 1.7 37 6.6 SW 13 17 7 9 1018.9 - 0.0
25/04:00pm 15.9 11.4 2.0 39 6.2 SSW 15 19 8 10 1018.8 - 0.0
25/03:30pm 16.6 12.9 2.2 38 6.5 SSW 11 19 6 10 1018.6 - 0.0
25/03:00pm 16.7 11.9 2.7 39 6.4 WSW 17 24 9 13 1018.8 1018.9 0.0
25/02:30pm 16.4 12.0 2.8 40 6.2 SSW 15 22 8 12 1019.0 - 0.0
25/02:00pm 16.2 11.5 3.3 42 6.0 SSW 17 24 9 13 1019.1 - 0.0
25/01:30pm 16.0 11.4 1.7 38 6.4 WSW 15 22 8 12 1019.2 - 0.0
25/01:00pm 15.7 11.3 2.8 42 5.9 SW 15 24 8 13 1019.7 - 0.0
25/12:30pm 15.8 11.4 2.6 41 6.0 SSW 15 24 8 13 1020.0 - 0.0
25/12:00pm 15.0 10.5 2.2 42 5.7 S 15 20 8 11 1020.6 1020.7 0.0
25/11:30am 14.9 10.0 1.8 41 5.8 S 17 24 9 13 1020.8 - 0.0
25/11:00am 14.3 9.6 3.2 47 5.0 S 17 22 9 12 1021.1 - 0.0
25/10:30am 13.9 8.9 3.4 49 4.8 SSW 19 26 10 14 1021.3 - 0.0
25/10:00am 13.9 9.3 3.7 50 4.7 S 17 24 9 13 1021.4 - 0.0
25/09:30am 13.0 8.2 4.9 58 3.8 SSW 19 28 10 15 1021.5 - 0.0
25/09:00am 11.9 7.0 5.1 63 3.1 SW 20 26 11 14 1021.2 1021.3 0.0
25/08:30am 11.1 6.4 5.0 66 2.8 SW 19 24 10 13 1020.8 - 0.0
25/08:00am 10.2 6.7 5.6 73 2.1 W 13 17 7 9 1020.4 - 0.0
25/07:30am 8.5 4.9 5.1 79 1.5 W 13 15 7 8 1020.1 - 0.0
25/07:00am 6.9 3.5 3.9 81 1.3 W 11 13 6 7 1019.8 - 0.0
25/06:30am 6.1 2.5 2.9 80 1.3 W 11 13 6 7 1019.6 - 0.0
25/06:00am 7.4 4.3 3.8 78 1.6 NW 9 11 5 6 1019.4 1019.5 0.0
25/05:30am 7.4 4.6 3.3 75 1.8 NW 7 9 4 5 1019.0 - 0.0
25/05:00am 8.5 5.5 4.1 74 1.9 WNW 9 11 5 6 1018.8 - 0.0
25/04:30am 7.9 5.2 3.9 76 1.7 WNW 7 11 4 6 1018.5 - 0.0
25/04:00am 7.0 3.6 4.1 82 1.3 W 11 15 6 8 1018.5 - 0.0
25/03:30am 6.4 3.1 4.6 88 0.8 W 11 13 6 7 1018.4 - 0.0
25/03:00am 5.7 3.1 4.0 89 0.7 NW 7 9 4 5 1018.6 1018.7 0.0
25/02:30am 5.9 4.2 4.2 89 0.7 NW 2 9 1 5 1018.6 - 0.0
25/02:00am 6.1 4.8 4.3 88 0.8 CALM 0 0 0 0 1018.7 - 0.0
25/01:30am 6.7 5.6 5.2 90 0.7 CALM 0 0 0 0 1018.7 - 0.0
25/01:00am 6.7 5.6 4.9 88 0.8 CALM 0 0 0 0 1018.6 - 0.0
25/12:30am 7.6 6.6 5.4 86 1.0 CALM 0 0 0 0 1018.6 - 0.0
25/12:00am 8.1 7.1 5.6 84 1.1 CALM 0 0 0 0 1018.8 1018.9 0.0
 
Date/Time
EST
Temp
°C
App
Temp
°C
Dew
Point
°C
Rel
Hum
%
Delta-T
°C
Wind Press
QNH
hPa
Press
MSL
hPa
Rain since
9am
mm
Dir  Spd
km/h
Gust
km/h
Spd
kts
Gust
kts
24/11:30pm 8.8 7.9 5.9 82 1.3 CALM 0 0 0 0 1018.5 - 0.0
24/11:00pm 9.5 8.7 6.4 81 1.5 CALM 0 0 0 0 1018.5 - 0.0
24/10:30pm 10.0 9.2 6.5 79 1.7 CALM 0 0 0 0 1018.3 - 0.0
24/10:00pm 10.6 8.4 6.0 73 2.2 S 7 9 4 5 1018.2 - 0.0
24/09:30pm 11.7 9.6 6.6 71 2.4 SSW 7 7 4 4 1018.0 - 0.0
24/09:00pm 12.1 10.0 6.8 70 2.6 S 7 9 4 5 1017.8 1017.9 0.0
24/08:30pm 12.6 10.5 6.6 67 2.9 SSW 7 11 4 6 1017.6 - 0.0
24/08:00pm 13.0 10.2 6.8 66 3.0 SSW 11 15 6 8 1017.3 - 0.0
24/07:30pm 13.2 11.4 7.9 70 2.6 SSW 7 9 4 5 1016.8 - 0.0
24/07:00pm 13.7 12.9 8.3 70 2.7 SSW 2 7 1 4 1016.3 - 0.0
24/06:30pm 14.4 13.8 7.5 63 3.4 CALM 0 0 0 0 1015.6 - 0.0
24/06:00pm 14.8 13.9 6.1 56 4.2 CALM 0 0 0 0 1015.4 1015.5 0.0
24/05:30pm 15.0 12.8 6.3 56 4.2 S 7 9 4 5 1015.3 - 0.0
24/05:00pm 15.7 13.3 5.3 50 5.0 SW 7 9 4 5 1015.0 - 0.0
24/04:30pm 16.2 13.5 3.9 44 5.8 W 7 11 4 6 1014.5 - 0.0
24/04:00pm 16.6 12.7 3.3 41 6.2 W 13 17 7 9 1014.9 - 0.0
24/03:30pm 16.9 14.6 2.9 39 6.5 WNW 4 7 2 4 1014.7 - 0.0
24/03:00pm 17.0 12.7 3.3 40 6.4 W 15 19 8 10 1015.0 1015.1 0.0
24/02:30pm 17.3 13.9 3.9 41 6.3 WNW 11 17 6 9 1015.2 - 0.0
24/02:00pm 16.9 13.2 2.5 38 6.6 WNW 11 17 6 9 1015.1 - 0.0

Other Formats:

Comma delimited format used in spreadsheet applications
http://www.bom.gov.au/fwo/IDQ60801/IDQ60801.94517.axf

JavaScript Object Notation format (JSON) in row-major order
http://www.bom.gov.au/fwo/IDQ60801/IDQ60801.94517.json